sensor_id;sensor_type;location;lat;lon;timestamp;P1;durP1;ratioP1;P2;durP2;ratioP2
11651;SDS011;5882;48.818;9.114;2024-02-16T00:01:16;2.03;;;1.90;;
11651;SDS011;5882;48.818;9.114;2024-02-16T00:04:01;2.38;;;2.17;;
11651;SDS011;5882;48.818;9.114;2024-02-16T00:06:46;2.65;;;1.88;;
11651;SDS011;5882;48.818;9.114;2024-02-16T00:09:31;2.15;;;1.67;;
11651;SDS011;5882;48.818;9.114;2024-02-16T00:12:18;1.73;;;1.60;;
11651;SDS011;5882;48.818;9.114;2024-02-16T00:15:03;2.67;;;2.28;;
11651;SDS011;5882;48.818;9.114;2024-02-16T00:17:48;2.00;;;1.75;;
11651;SDS011;5882;48.818;9.114;2024-02-16T00:20:33;1.80;;;1.70;;
11651;SDS011;5882;48.818;9.114;2024-02-16T00:23:18;2.08;;;1.88;;
11651;SDS011;5882;48.818;9.114;2024-02-16T00:26:06;2.67;;;1.80;;
11651;SDS011;5882;48.818;9.114;2024-02-16T00:28:53;1.80;;;1.70;;
11651;SDS011;5882;48.818;9.114;2024-02-16T00:31:38;1.55;;;1.45;;
11651;SDS011;5882;48.818;9.114;2024-02-16T00:34:23;2.38;;;2.17;;
11651;SDS011;5882;48.818;9.114;2024-02-16T00:37:08;1.77;;;1.65;;
11651;SDS011;5882;48.818;9.114;2024-02-16T00:39:55;1.95;;;1.65;;
11651;SDS011;5882;48.818;9.114;2024-02-16T00:42:40;1.60;;;1.50;;
11651;SDS011;5882;48.818;9.114;2024-02-16T00:45:26;2.17;;;1.98;;
11651;SDS011;5882;48.818;9.114;2024-02-16T00:48:11;1.50;;;1.40;;
11651;SDS011;5882;48.818;9.114;2024-02-16T00:50:56;2.05;;;1.70;;
11651;SDS011;5882;48.818;9.114;2024-02-16T00:53:41;2.33;;;2.00;;
11651;SDS011;5882;48.818;9.114;2024-02-16T00:56:26;2.88;;;1.45;;
11651;SDS011;5882;48.818;9.114;2024-02-16T00:59:11;2.28;;;1.60;;
11651;SDS011;5882;48.818;9.114;2024-02-16T01:01:57;2.03;;;1.85;;
11651;SDS011;5882;48.818;9.114;2024-02-16T01:04:43;1.70;;;1.60;;
11651;SDS011;5882;48.818;9.114;2024-02-16T01:07:28;2.30;;;1.60;;
11651;SDS011;5882;48.818;9.114;2024-02-16T01:10:14;1.88;;;1.70;;
11651;SDS011;5882;48.818;9.114;2024-02-16T01:12:59;2.67;;;1.70;;
11651;SDS011;5882;48.818;9.114;2024-02-16T01:15:44;3.88;;;1.70;;
11651;SDS011;5882;48.818;9.114;2024-02-16T01:18:31;1.70;;;1.60;;
11651;SDS011;5882;48.818;9.114;2024-02-16T01:21:16;2.00;;;1.80;;
11651;SDS011;5882;48.818;9.114;2024-02-16T01:24:01;1.90;;;1.80;;
11651;SDS011;5882;48.818;9.114;2024-02-16T01:26:46;3.72;;;1.75;;
11651;SDS011;5882;48.818;9.114;2024-02-16T01:29:31;1.92;;;1.77;;
11651;SDS011;5882;48.818;9.114;2024-02-16T01:32:16;1.90;;;1.80;;
11651;SDS011;5882;48.818;9.114;2024-02-16T01:35:04;2.30;;;1.63;;
11651;SDS011;5882;48.818;9.114;2024-02-16T01:37:49;1.90;;;1.70;;
11651;SDS011;5882;48.818;9.114;2024-02-16T01:40:34;3.75;;;1.73;;
11651;SDS011;5882;48.818;9.114;2024-02-16T01:43:19;1.77;;;1.63;;
11651;SDS011;5882;48.818;9.114;2024-02-16T01:46:04;2.80;;;1.98;;
11651;SDS011;5882;48.818;9.114;2024-02-16T01:48:49;1.48;;;1.38;;
11651;SDS011;5882;48.818;9.114;2024-02-16T01:51:36;2.67;;;1.80;;
11651;SDS011;5882;48.818;9.114;2024-02-16T01:54:21;1.85;;;1.75;;
11651;SDS011;5882;48.818;9.114;2024-02-16T01:57:07;1.60;;;1.42;;
11651;SDS011;5882;48.818;9.114;2024-02-16T01:59:52;1.55;;;1.40;;
11651;SDS011;5882;48.818;9.114;2024-02-16T02:02:37;2.17;;;1.90;;
11651;SDS011;5882;48.818;9.114;2024-02-16T02:05:24;2.30;;;1.70;;
11651;SDS011;5882;48.818;9.114;2024-02-16T02:08:10;3.78;;;2.17;;
11651;SDS011;5882;48.818;9.114;2024-02-16T02:10:56;2.25;;;2.05;;
11651;SDS011;5882;48.818;9.114;2024-02-16T02:13:41;2.20;;;2.05;;
11651;SDS011;5882;48.818;9.114;2024-02-16T02:16:26;2.10;;;1.90;;
11651;SDS011;5882;48.818;9.114;2024-02-16T02:19:11;2.78;;;2.40;;
11651;SDS011;5882;48.818;9.114;2024-02-16T02:21:56;3.10;;;2.38;;
11651;SDS011;5882;48.818;9.114;2024-02-16T02:24:43;2.58;;;2.10;;
11651;SDS011;5882;48.818;9.114;2024-02-16T02:27:28;2.00;;;1.80;;
11651;SDS011;5882;48.818;9.114;2024-02-16T02:30:13;1.90;;;1.67;;
11651;SDS011;5882;48.818;9.114;2024-02-16T02:32:58;2.92;;;1.95;;
11651;SDS011;5882;48.818;9.114;2024-02-16T02:35:43;1.67;;;1.58;;
11651;SDS011;5882;48.818;9.114;2024-02-16T02:38:28;1.90;;;1.70;;
11651;SDS011;5882;48.818;9.114;2024-02-16T02:41:17;2.40;;;2.17;;
11651;SDS011;5882;48.818;9.114;2024-02-16T02:44:04;2.17;;;1.95;;
11651;SDS011;5882;48.818;9.114;2024-02-16T02:46:49;3.15;;;1.77;;
11651;SDS011;5882;48.818;9.114;2024-02-16T02:49:34;2.20;;;2.03;;
11651;SDS011;5882;48.818;9.114;2024-02-16T02:52:20;2.28;;;2.00;;
11651;SDS011;5882;48.818;9.114;2024-02-16T02:55:06;2.17;;;2.00;;
11651;SDS011;5882;48.818;9.114;2024-02-16T02:57:52;1.92;;;1.83;;
11651;SDS011;5882;48.818;9.114;2024-02-16T03:00:37;2.63;;;2.20;;
11651;SDS011;5882;48.818;9.114;2024-02-16T03:03:22;2.20;;;2.00;;
11651;SDS011;5882;48.818;9.114;2024-02-16T03:06:07;2.28;;;2.08;;
11651;SDS011;5882;48.818;9.114;2024-02-16T03:08:52;1.98;;;1.80;;
11651;SDS011;5882;48.818;9.114;2024-02-16T03:11:38;2.03;;;1.80;;
11651;SDS011;5882;48.818;9.114;2024-02-16T03:14:25;3.03;;;2.28;;
11651;SDS011;5882;48.818;9.114;2024-02-16T03:17:09;2.75;;;2.15;;
11651;SDS011;5882;48.818;9.114;2024-02-16T03:19:55;2.58;;;2.08;;
11651;SDS011;5882;48.818;9.114;2024-02-16T03:22:39;2.10;;;1.83;;
11651;SDS011;5882;48.818;9.114;2024-02-16T03:25:24;2.58;;;1.85;;
11651;SDS011;5882;48.818;9.114;2024-02-16T03:28:11;2.33;;;2.13;;
11651;SDS011;5882;48.818;9.114;2024-02-16T03:30:58;3.03;;;2.17;;
11651;SDS011;5882;48.818;9.114;2024-02-16T03:33:43;3.55;;;2.50;;
11651;SDS011;5882;48.818;9.114;2024-02-16T03:36:28;2.00;;;1.80;;
11651;SDS011;5882;48.818;9.114;2024-02-16T03:39:14;2.00;;;1.88;;
11651;SDS011;5882;48.818;9.114;2024-02-16T03:42:04;2.05;;;1.85;;
11651;SDS011;5882;48.818;9.114;2024-02-16T03:44:49;2.70;;;1.88;;
11651;SDS011;5882;48.818;9.114;2024-02-16T03:47:35;1.85;;;1.75;;
11651;SDS011;5882;48.818;9.114;2024-02-16T03:50:20;2.83;;;2.13;;
11651;SDS011;5882;48.818;9.114;2024-02-16T03:53:05;2.20;;;2.00;;
11651;SDS011;5882;48.818;9.114;2024-02-16T03:55:50;2.72;;;1.70;;
11651;SDS011;5882;48.818;9.114;2024-02-16T03:58:36;2.95;;;2.25;;
11651;SDS011;5882;48.818;9.114;2024-02-16T04:01:21;4.00;;;2.55;;
11651;SDS011;5882;48.818;9.114;2024-02-16T04:04:07;2.22;;;1.92;;
11651;SDS011;5882;48.818;9.114;2024-02-16T04:06:52;1.88;;;1.77;;
11651;SDS011;5882;48.818;9.114;2024-02-16T04:09:37;2.20;;;1.98;;
11651;SDS011;5882;48.818;9.114;2024-02-16T04:12:22;2.28;;;2.08;;
11651;SDS011;5882;48.818;9.114;2024-02-16T04:15:07;1.63;;;1.52;;
11651;SDS011;5882;48.818;9.114;2024-02-16T04:17:53;1.95;;;1.75;;
11651;SDS011;5882;48.818;9.114;2024-02-16T04:20:39;1.63;;;1.52;;
11651;SDS011;5882;48.818;9.114;2024-02-16T04:23:25;2.10;;;1.90;;
11651;SDS011;5882;48.818;9.114;2024-02-16T04:26:10;1.60;;;1.50;;
11651;SDS011;5882;48.818;9.114;2024-02-16T04:28:55;1.98;;;1.88;;
11651;SDS011;5882;48.818;9.114;2024-02-16T04:31:40;2.90;;;1.90;;
11651;SDS011;5882;48.818;9.114;2024-02-16T04:34:26;3.95;;;2.42;;
11651;SDS011;5882;48.818;9.114;2024-02-16T04:37:12;3.00;;;2.40;;
11651;SDS011;5882;48.818;9.114;2024-02-16T04:39:58;2.58;;;2.38;;
11651;SDS011;5882;48.818;9.114;2024-02-16T04:42:43;2.50;;;2.30;;
11651;SDS011;5882;48.818;9.114;2024-02-16T04:45:27;2.47;;;2.28;;
11651;SDS011;5882;48.818;9.114;2024-02-16T04:48:13;2.75;;;2.40;;
11651;SDS011;5882;48.818;9.114;2024-02-16T04:50:58;2.60;;;1.85;;
11651;SDS011;5882;48.818;9.114;2024-02-16T04:53:44;2.33;;;1.77;;
11651;SDS011;5882;48.818;9.114;2024-02-16T04:56:29;2.80;;;2.50;;
11651;SDS011;5882;48.818;9.114;2024-02-16T04:59:14;2.20;;;2.00;;
11651;SDS011;5882;48.818;9.114;2024-02-16T05:02:00;2.30;;;2.03;;
11651;SDS011;5882;48.818;9.114;2024-02-16T05:04:45;1.98;;;1.85;;
11651;SDS011;5882;48.818;9.114;2024-02-16T05:07:30;2.28;;;2.08;;
11651;SDS011;5882;48.818;9.114;2024-02-16T05:10:16;1.88;;;1.77;;
11651;SDS011;5882;48.818;9.114;2024-02-16T05:13:03;2.10;;;1.90;;
11651;SDS011;5882;48.818;9.114;2024-02-16T05:15:48;2.30;;;2.10;;
11651;SDS011;5882;48.818;9.114;2024-02-16T05:18:33;2.33;;;2.13;;
11651;SDS011;5882;48.818;9.114;2024-02-16T05:21:18;2.20;;;1.92;;
11651;SDS011;5882;48.818;9.114;2024-02-16T05:24:03;2.40;;;2.10;;
11651;SDS011;5882;48.818;9.114;2024-02-16T05:26:50;2.85;;;2.25;;
11651;SDS011;5882;48.818;9.114;2024-02-16T05:29:35;2.38;;;2.17;;
11651;SDS011;5882;48.818;9.114;2024-02-16T05:32:20;2.30;;;2.10;;
11651;SDS011;5882;48.818;9.114;2024-02-16T05:35:06;2.53;;;2.13;;
11651;SDS011;5882;48.818;9.114;2024-02-16T05:37:55;2.17;;;2.03;;
11651;SDS011;5882;48.818;9.114;2024-02-16T05:40:40;2.53;;;2.20;;
11651;SDS011;5882;48.818;9.114;2024-02-16T05:43:38;2.72;;;1.90;;
11651;SDS011;5882;48.818;9.114;2024-02-16T05:46:23;2.40;;;1.95;;
11651;SDS011;5882;48.818;9.114;2024-02-16T05:49:08;5.28;;;2.25;;
11651;SDS011;5882;48.818;9.114;2024-02-16T05:51:54;2.13;;;1.92;;
11651;SDS011;5882;48.818;9.114;2024-02-16T05:54:59;2.35;;;2.25;;
11651;SDS011;5882;48.818;9.114;2024-02-16T05:57:44;2.47;;;2.10;;
11651;SDS011;5882;48.818;9.114;2024-02-16T06:00:31;2.17;;;2.05;;
11651;SDS011;5882;48.818;9.114;2024-02-16T06:03:16;2.60;;;2.40;;
11651;SDS011;5882;48.818;9.114;2024-02-16T06:06:02;2.45;;;2.10;;
11651;SDS011;5882;48.818;9.114;2024-02-16T06:08:47;3.10;;;2.80;;
11651;SDS011;5882;48.818;9.114;2024-02-16T06:11:32;3.15;;;2.35;;
11651;SDS011;5882;48.818;9.114;2024-02-16T06:14:17;3.67;;;2.30;;
11651;SDS011;5882;48.818;9.114;2024-02-16T06:17:05;2.75;;;2.55;;
11651;SDS011;5882;48.818;9.114;2024-02-16T06:19:52;3.45;;;2.38;;
11651;SDS011;5882;48.818;9.114;2024-02-16T06:22:37;3.30;;;2.70;;
11651;SDS011;5882;48.818;9.114;2024-02-16T06:25:22;4.63;;;2.78;;
11651;SDS011;5882;48.818;9.114;2024-02-16T06:28:07;2.88;;;2.20;;
11651;SDS011;5882;48.818;9.114;2024-02-16T06:30:52;2.95;;;2.65;;
11651;SDS011;5882;48.818;9.114;2024-02-16T06:33:38;2.90;;;2.40;;
11651;SDS011;5882;48.818;9.114;2024-02-16T06:36:23;2.17;;;2.00;;
11651;SDS011;5882;48.818;9.114;2024-02-16T06:39:08;2.97;;;2.30;;
11651;SDS011;5882;48.818;9.114;2024-02-16T06:41:54;2.60;;;2.17;;
11651;SDS011;5882;48.818;9.114;2024-02-16T06:44:39;3.13;;;2.83;;
11651;SDS011;5882;48.818;9.114;2024-02-16T06:47:24;3.47;;;2.40;;
11651;SDS011;5882;48.818;9.114;2024-02-16T06:50:11;2.65;;;2.33;;
11651;SDS011;5882;48.818;9.114;2024-02-16T06:52:56;2.30;;;2.10;;
11651;SDS011;5882;48.818;9.114;2024-02-16T06:55:41;2.17;;;1.98;;
11651;SDS011;5882;48.818;9.114;2024-02-16T06:58:26;2.70;;;2.05;;
11651;SDS011;5882;48.818;9.114;2024-02-16T07:01:11;3.28;;;2.58;;
11651;SDS011;5882;48.818;9.114;2024-02-16T07:03:57;2.38;;;2.17;;
11651;SDS011;5882;48.818;9.114;2024-02-16T07:06:43;3.47;;;2.58;;
11651;SDS011;5882;48.818;9.114;2024-02-16T07:09:28;3.03;;;2.63;;
11651;SDS011;5882;48.818;9.114;2024-02-16T07:12:13;2.72;;;2.40;;
11651;SDS011;5882;48.818;9.114;2024-02-16T07:14:57;2.75;;;2.22;;
11651;SDS011;5882;48.818;9.114;2024-02-16T07:17:42;2.88;;;2.58;;
11651;SDS011;5882;48.818;9.114;2024-02-16T07:20:28;2.60;;;2.35;;
11651;SDS011;5882;48.818;9.114;2024-02-16T07:23:14;3.20;;;2.78;;
11651;SDS011;5882;48.818;9.114;2024-02-16T07:25:59;3.58;;;2.50;;
11651;SDS011;5882;48.818;9.114;2024-02-16T07:28:45;4.35;;;2.92;;
11651;SDS011;5882;48.818;9.114;2024-02-16T07:31:32;3.55;;;2.20;;
11651;SDS011;5882;48.818;9.114;2024-02-16T07:34:18;2.67;;;2.47;;
11651;SDS011;5882;48.818;9.114;2024-02-16T07:37:03;2.42;;;2.20;;
11651;SDS011;5882;48.818;9.114;2024-02-16T07:39:52;2.60;;;2.40;;
11651;SDS011;5882;48.818;9.114;2024-02-16T07:42:38;3.25;;;2.60;;
11651;SDS011;5882;48.818;9.114;2024-02-16T07:45:23;3.67;;;2.70;;
11651;SDS011;5882;48.818;9.114;2024-02-16T07:48:08;2.60;;;2.40;;
11651;SDS011;5882;48.818;9.114;2024-02-16T07:50:53;2.03;;;1.88;;
11651;SDS011;5882;48.818;9.114;2024-02-16T07:53:38;2.65;;;2.33;;
11651;SDS011;5882;48.818;9.114;2024-02-16T07:56:26;4.30;;;2.85;;
11651;SDS011;5882;48.818;9.114;2024-02-16T07:59:11;11.52;;;6.82;;
11651;SDS011;5882;48.818;9.114;2024-02-16T08:01:56;27.48;;;16.25;;
11651;SDS011;5882;48.818;9.114;2024-02-16T08:04:41;13.10;;;7.97;;
11651;SDS011;5882;48.818;9.114;2024-02-16T08:07:26;5.45;;;3.55;;
11651;SDS011;5882;48.818;9.114;2024-02-16T08:10:11;3.95;;;3.40;;
11651;SDS011;5882;48.818;9.114;2024-02-16T08:12:58;4.50;;;3.30;;
11651;SDS011;5882;48.818;9.114;2024-02-16T08:15:43;3.40;;;3.10;;
11651;SDS011;5882;48.818;9.114;2024-02-16T08:18:28;4.25;;;3.65;;
11651;SDS011;5882;48.818;9.114;2024-02-16T08:21:14;7.60;;;3.60;;
11651;SDS011;5882;48.818;9.114;2024-02-16T08:23:59;4.20;;;2.90;;
11651;SDS011;5882;48.818;9.114;2024-02-16T08:26:45;3.05;;;2.72;;
11651;SDS011;5882;48.818;9.114;2024-02-16T08:29:36;2.90;;;2.70;;
11651;SDS011;5882;48.818;9.114;2024-02-16T08:32:21;2.65;;;2.40;;
11651;SDS011;5882;48.818;9.114;2024-02-16T08:35:06;2.47;;;2.28;;
11651;SDS011;5882;48.818;9.114;2024-02-16T08:37:52;2.92;;;2.72;;
11651;SDS011;5882;48.818;9.114;2024-02-16T08:40:37;3.78;;;2.65;;
11651;SDS011;5882;48.818;9.114;2024-02-16T08:43:22;5.82;;;3.00;;
11651;SDS011;5882;48.818;9.114;2024-02-16T08:46:09;2.70;;;2.38;;
11651;SDS011;5882;48.818;9.114;2024-02-16T08:48:54;3.17;;;2.40;;
11651;SDS011;5882;48.818;9.114;2024-02-16T08:51:42;2.90;;;2.70;;
11651;SDS011;5882;48.818;9.114;2024-02-16T08:54:27;3.20;;;2.70;;
11651;SDS011;5882;48.818;9.114;2024-02-16T08:57:12;2.40;;;2.20;;
11651;SDS011;5882;48.818;9.114;2024-02-16T08:59:57;3.35;;;2.88;;
11651;SDS011;5882;48.818;9.114;2024-02-16T09:02:44;4.13;;;3.30;;
11651;SDS011;5882;48.818;9.114;2024-02-16T09:05:30;2.42;;;2.22;;
11651;SDS011;5882;48.818;9.114;2024-02-16T09:08:15;3.15;;;2.85;;
11651;SDS011;5882;48.818;9.114;2024-02-16T09:11:00;3.60;;;2.47;;
11651;SDS011;5882;48.818;9.114;2024-02-16T09:13:48;3.72;;;3.10;;
11651;SDS011;5882;48.818;9.114;2024-02-16T09:16:34;3.22;;;2.83;;
11651;SDS011;5882;48.818;9.114;2024-02-16T09:19:20;3.47;;;2.97;;
11651;SDS011;5882;48.818;9.114;2024-02-16T09:22:05;2.30;;;2.13;;
11651;SDS011;5882;48.818;9.114;2024-02-16T09:24:51;2.10;;;1.98;;
11651;SDS011;5882;48.818;9.114;2024-02-16T09:27:38;2.65;;;2.00;;
11651;SDS011;5882;48.818;9.114;2024-02-16T09:30:25;2.20;;;2.00;;
11651;SDS011;5882;48.818;9.114;2024-02-16T09:33:10;2.60;;;2.10;;
11651;SDS011;5882;48.818;9.114;2024-02-16T09:35:56;1.95;;;1.85;;
11651;SDS011;5882;48.818;9.114;2024-02-16T09:38:44;1.95;;;1.75;;
11651;SDS011;5882;48.818;9.114;2024-02-16T09:41:29;1.80;;;1.70;;
11651;SDS011;5882;48.818;9.114;2024-02-16T09:44:16;2.33;;;2.13;;
11651;SDS011;5882;48.818;9.114;2024-02-16T09:47:04;3.97;;;2.22;;
11651;SDS011;5882;48.818;9.114;2024-02-16T09:49:51;2.85;;;2.13;;
11651;SDS011;5882;48.818;9.114;2024-02-16T09:52:37;4.72;;;2.42;;
11651;SDS011;5882;48.818;9.114;2024-02-16T09:55:22;2.80;;;2.22;;
11651;SDS011;5882;48.818;9.114;2024-02-16T09:58:07;2.47;;;2.00;;
11651;SDS011;5882;48.818;9.114;2024-02-16T10:00:57;3.85;;;2.30;;
11651;SDS011;5882;48.818;9.114;2024-02-16T10:03:44;2.13;;;1.92;;
11651;SDS011;5882;48.818;9.114;2024-02-16T10:06:28;1.88;;;1.75;;
11651;SDS011;5882;48.818;9.114;2024-02-16T10:09:23;2.20;;;2.00;;
11651;SDS011;5882;48.818;9.114;2024-02-16T10:12:08;2.00;;;1.75;;
11651;SDS011;5882;48.818;9.114;2024-02-16T10:14:53;1.70;;;1.60;;
11651;SDS011;5882;48.818;9.114;2024-02-16T10:17:39;1.85;;;1.55;;
11651;SDS011;5882;48.818;9.114;2024-02-16T10:20:24;1.40;;;1.30;;
11651;SDS011;5882;48.818;9.114;2024-02-16T10:23:09;1.27;;;1.17;;
11651;SDS011;5882;48.818;9.114;2024-02-16T10:25:55;1.48;;;1.25;;
11651;SDS011;5882;48.818;9.114;2024-02-16T10:28:40;1.50;;;1.15;;
11651;SDS011;5882;48.818;9.114;2024-02-16T10:31:27;1.27;;;1.17;;
11651;SDS011;5882;48.818;9.114;2024-02-16T10:34:15;1.40;;;1.30;;
11651;SDS011;5882;48.818;9.114;2024-02-16T10:37:01;1.48;;;1.38;;
11651;SDS011;5882;48.818;9.114;2024-02-16T10:39:46;1.10;;;1.10;;
11651;SDS011;5882;48.818;9.114;2024-02-16T10:42:35;2.13;;;1.27;;
11651;SDS011;5882;48.818;9.114;2024-02-16T10:45:21;1.23;;;1.13;;
11651;SDS011;5882;48.818;9.114;2024-02-16T10:48:06;2.00;;;1.50;;
11651;SDS011;5882;48.818;9.114;2024-02-16T10:50:51;1.10;;;1.10;;
11651;SDS011;5882;48.818;9.114;2024-02-16T10:53:37;1.50;;;1.10;;
11651;SDS011;5882;48.818;9.114;2024-02-16T10:56:26;1.50;;;1.40;;
11651;SDS011;5882;48.818;9.114;2024-02-16T10:59:13;1.27;;;1.17;;
11651;SDS011;5882;48.818;9.114;2024-02-16T11:02:01;1.00;;;1.00;;
11651;SDS011;5882;48.818;9.114;2024-02-16T11:04:47;1.70;;;1.27;;
11651;SDS011;5882;48.818;9.114;2024-02-16T11:07:33;1.20;;;1.10;;
11651;SDS011;5882;48.818;9.114;2024-02-16T11:10:18;1.05;;;1.05;;
11651;SDS011;5882;48.818;9.114;2024-02-16T11:13:04;2.60;;;1.30;;
11651;SDS011;5882;48.818;9.114;2024-02-16T11:15:57;1.35;;;1.25;;
11651;SDS011;5882;48.818;9.114;2024-02-16T11:18:45;1.38;;;1.27;;
11651;SDS011;5882;48.818;9.114;2024-02-16T11:21:32;1.35;;;1.25;;
11651;SDS011;5882;48.818;9.114;2024-02-16T11:24:17;1.48;;;1.27;;
11651;SDS011;5882;48.818;9.114;2024-02-16T11:27:07;2.92;;;1.30;;
11651;SDS011;5882;48.818;9.114;2024-02-16T11:29:52;2.72;;;1.27;;
11651;SDS011;5882;48.818;9.114;2024-02-16T11:32:40;1.25;;;1.20;;
11651;SDS011;5882;48.818;9.114;2024-02-16T11:35:30;1.83;;;1.20;;
11651;SDS011;5882;48.818;9.114;2024-02-16T11:38:15;1.42;;;1.20;;
11651;SDS011;5882;48.818;9.114;2024-02-16T11:41:02;1.17;;;1.10;;
11651;SDS011;5882;48.818;9.114;2024-02-16T11:43:48;1.83;;;1.25;;
11651;SDS011;5882;48.818;9.114;2024-02-16T11:46:33;4.45;;;1.35;;
11651;SDS011;5882;48.818;9.114;2024-02-16T11:49:20;1.42;;;1.30;;
11651;SDS011;5882;48.818;9.114;2024-02-16T11:52:06;1.10;;;1.00;;
11651;SDS011;5882;48.818;9.114;2024-02-16T11:54:51;1.65;;;1.45;;
11651;SDS011;5882;48.818;9.114;2024-02-16T11:57:37;1.40;;;1.30;;
11651;SDS011;5882;48.818;9.114;2024-02-16T12:00:22;1.35;;;1.25;;
11651;SDS011;5882;48.818;9.114;2024-02-16T12:03:07;1.17;;;1.10;;
11651;SDS011;5882;48.818;9.114;2024-02-16T12:05:54;1.27;;;1.17;;
11651;SDS011;5882;48.818;9.114;2024-02-16T12:08:39;1.50;;;1.20;;
11651;SDS011;5882;48.818;9.114;2024-02-16T12:11:24;2.78;;;1.08;;
11651;SDS011;5882;48.818;9.114;2024-02-16T12:14:09;1.20;;;1.10;;
11651;SDS011;5882;48.818;9.114;2024-02-16T12:16:55;1.35;;;1.25;;
11651;SDS011;5882;48.818;9.114;2024-02-16T12:19:43;1.40;;;1.30;;
11651;SDS011;5882;48.818;9.114;2024-02-16T12:22:29;2.25;;;1.48;;
11651;SDS011;5882;48.818;9.114;2024-02-16T12:25:14;1.50;;;1.25;;
11651;SDS011;5882;48.818;9.114;2024-02-16T12:27:59;1.42;;;1.33;;
11651;SDS011;5882;48.818;9.114;2024-02-16T12:30:44;1.27;;;1.20;;
11651;SDS011;5882;48.818;9.114;2024-02-16T12:33:29;1.50;;;1.40;;
11651;SDS011;5882;48.818;9.114;2024-02-16T12:36:14;1.60;;;1.30;;
11651;SDS011;5882;48.818;9.114;2024-02-16T12:39:01;2.30;;;1.60;;
11651;SDS011;5882;48.818;9.114;2024-02-16T12:41:47;1.40;;;1.27;;
11651;SDS011;5882;48.818;9.114;2024-02-16T12:44:33;1.42;;;1.33;;
11651;SDS011;5882;48.818;9.114;2024-02-16T12:47:18;1.77;;;1.35;;
11651;SDS011;5882;48.818;9.114;2024-02-16T12:50:04;1.73;;;1.50;;
11651;SDS011;5882;48.818;9.114;2024-02-16T12:52:49;2.65;;;1.45;;
11651;SDS011;5882;48.818;9.114;2024-02-16T12:55:35;1.40;;;1.30;;
11651;SDS011;5882;48.818;9.114;2024-02-16T12:58:21;1.55;;;1.45;;
11651;SDS011;5882;48.818;9.114;2024-02-16T13:01:06;1.23;;;1.10;;
11651;SDS011;5882;48.818;9.114;2024-02-16T13:03:54;2.03;;;1.35;;
11651;SDS011;5882;48.818;9.114;2024-02-16T13:06:42;1.52;;;1.40;;
11651;SDS011;5882;48.818;9.114;2024-02-16T13:09:29;2.33;;;1.40;;
11651;SDS011;5882;48.818;9.114;2024-02-16T13:12:15;1.30;;;1.25;;
11651;SDS011;5882;48.818;9.114;2024-02-16T13:15:00;1.55;;;1.45;;
11651;SDS011;5882;48.818;9.114;2024-02-16T13:17:46;2.10;;;1.40;;
11651;SDS011;5882;48.818;9.114;2024-02-16T13:20:34;1.50;;;1.40;;
11651;SDS011;5882;48.818;9.114;2024-02-16T13:23:19;1.60;;;1.42;;
11651;SDS011;5882;48.818;9.114;2024-02-16T13:26:04;1.30;;;1.20;;
11651;SDS011;5882;48.818;9.114;2024-02-16T13:28:51;1.30;;;1.20;;
11651;SDS011;5882;48.818;9.114;2024-02-16T13:31:37;1.48;;;1.35;;
11651;SDS011;5882;48.818;9.114;2024-02-16T13:34:24;1.58;;;1.20;;
11651;SDS011;5882;48.818;9.114;2024-02-16T13:37:11;1.80;;;1.60;;
11651;SDS011;5882;48.818;9.114;2024-02-16T13:39:56;1.88;;;1.30;;
11651;SDS011;5882;48.818;9.114;2024-02-16T13:42:41;2.30;;;1.27;;
11651;SDS011;5882;48.818;9.114;2024-02-16T13:45:28;1.45;;;1.35;;
11651;SDS011;5882;48.818;9.114;2024-02-16T13:48:14;1.42;;;1.33;;
11651;SDS011;5882;48.818;9.114;2024-02-16T13:50:59;2.22;;;1.20;;
11651;SDS011;5882;48.818;9.114;2024-02-16T13:53:44;2.38;;;1.50;;
11651;SDS011;5882;48.818;9.114;2024-02-16T13:56:29;1.60;;;1.50;;
11651;SDS011;5882;48.818;9.114;2024-02-16T13:59:14;1.63;;;1.40;;
11651;SDS011;5882;48.818;9.114;2024-02-16T14:02:00;1.40;;;1.30;;
11651;SDS011;5882;48.818;9.114;2024-02-16T14:04:45;1.23;;;1.13;;
11651;SDS011;5882;48.818;9.114;2024-02-16T14:07:34;1.70;;;1.10;;
11651;SDS011;5882;48.818;9.114;2024-02-16T14:10:18;1.40;;;1.30;;
11651;SDS011;5882;48.818;9.114;2024-02-16T14:13:04;1.45;;;1.20;;
11651;SDS011;5882;48.818;9.114;2024-02-16T14:15:49;1.42;;;1.30;;
11651;SDS011;5882;48.818;9.114;2024-02-16T14:18:36;1.17;;;1.08;;
11651;SDS011;5882;48.818;9.114;2024-02-16T14:21:21;1.35;;;1.10;;
11651;SDS011;5882;48.818;9.114;2024-02-16T14:24:06;3.63;;;1.50;;
11651;SDS011;5882;48.818;9.114;2024-02-16T14:26:53;2.60;;;2.03;;
11651;SDS011;5882;48.818;9.114;2024-02-16T14:29:39;1.40;;;1.30;;
11651;SDS011;5882;48.818;9.114;2024-02-16T14:32:23;1.25;;;1.15;;
11651;SDS011;5882;48.818;9.114;2024-02-16T14:35:10;1.52;;;1.10;;
11651;SDS011;5882;48.818;9.114;2024-02-16T14:37:55;0.90;;;0.90;;
11651;SDS011;5882;48.818;9.114;2024-02-16T14:40:42;1.95;;;1.00;;
11651;SDS011;5882;48.818;9.114;2024-02-16T14:43:30;1.30;;;1.10;;
11651;SDS011;5882;48.818;9.114;2024-02-16T14:46:18;0.98;;;0.98;;
11651;SDS011;5882;48.818;9.114;2024-02-16T14:49:05;2.20;;;1.00;;
11651;SDS011;5882;48.818;9.114;2024-02-16T14:51:53;1.63;;;0.98;;
11651;SDS011;5882;48.818;9.114;2024-02-16T14:54:38;0.90;;;0.90;;
11651;SDS011;5882;48.818;9.114;2024-02-16T14:57:25;1.33;;;1.20;;
11651;SDS011;5882;48.818;9.114;2024-02-16T15:00:11;1.17;;;1.10;;
11651;SDS011;5882;48.818;9.114;2024-02-16T15:02:56;1.40;;;0.90;;
11651;SDS011;5882;48.818;9.114;2024-02-16T15:05:41;1.27;;;1.10;;
11651;SDS011;5882;48.818;9.114;2024-02-16T15:08:31;1.30;;;1.00;;
11651;SDS011;5882;48.818;9.114;2024-02-16T15:11:16;1.10;;;1.00;;
11651;SDS011;5882;48.818;9.114;2024-02-16T15:14:01;1.42;;;0.98;;
11651;SDS011;5882;48.818;9.114;2024-02-16T15:16:46;1.38;;;1.27;;
11651;SDS011;5882;48.818;9.114;2024-02-16T15:19:31;0.80;;;0.80;;
11651;SDS011;5882;48.818;9.114;2024-02-16T15:22:18;0.90;;;0.90;;
11651;SDS011;5882;48.818;9.114;2024-02-16T15:25:05;1.67;;;1.10;;
11651;SDS011;5882;48.818;9.114;2024-02-16T15:27:50;0.90;;;0.90;;
11651;SDS011;5882;48.818;9.114;2024-02-16T15:30:35;0.90;;;0.90;;
11651;SDS011;5882;48.818;9.114;2024-02-16T15:33:20;0.93;;;0.90;;
11651;SDS011;5882;48.818;9.114;2024-02-16T15:36:05;1.67;;;0.90;;
11651;SDS011;5882;48.818;9.114;2024-02-16T15:38:52;0.93;;;0.93;;
11651;SDS011;5882;48.818;9.114;2024-02-16T15:41:39;1.60;;;1.50;;
11651;SDS011;5882;48.818;9.114;2024-02-16T15:44:24;0.88;;;0.88;;
11651;SDS011;5882;48.818;9.114;2024-02-16T15:47:12;1.10;;;0.90;;
11651;SDS011;5882;48.818;9.114;2024-02-16T15:49:56;1.10;;;1.10;;
11651;SDS011;5882;48.818;9.114;2024-02-16T15:52:45;0.95;;;0.90;;
11651;SDS011;5882;48.818;9.114;2024-02-16T15:55:29;1.00;;;1.00;;
11651;SDS011;5882;48.818;9.114;2024-02-16T15:58:16;1.33;;;1.15;;
11651;SDS011;5882;48.818;9.114;2024-02-16T16:01:01;1.70;;;0.85;;
11651;SDS011;5882;48.818;9.114;2024-02-16T16:03:46;1.10;;;1.00;;
11651;SDS011;5882;48.818;9.114;2024-02-16T16:06:33;0.80;;;0.80;;
11651;SDS011;5882;48.818;9.114;2024-02-16T16:09:19;1.20;;;1.10;;
11651;SDS011;5882;48.818;9.114;2024-02-16T16:12:05;2.00;;;1.33;;
11651;SDS011;5882;48.818;9.114;2024-02-16T16:14:51;1.23;;;1.10;;
11651;SDS011;5882;48.818;9.114;2024-02-16T16:17:37;3.72;;;1.30;;
11651;SDS011;5882;48.818;9.114;2024-02-16T16:20:22;1.20;;;1.02;;
11651;SDS011;5882;48.818;9.114;2024-02-16T16:23:07;1.80;;;1.10;;
11651;SDS011;5882;48.818;9.114;2024-02-16T16:25:52;2.08;;;1.33;;
11651;SDS011;5882;48.818;9.114;2024-02-16T16:28:37;3.38;;;1.23;;
11651;SDS011;5882;48.818;9.114;2024-02-16T16:31:26;1.30;;;1.20;;
11651;SDS011;5882;48.818;9.114;2024-02-16T16:34:11;2.10;;;1.20;;
11651;SDS011;5882;48.818;9.114;2024-02-16T16:36:56;1.70;;;1.58;;
11651;SDS011;5882;48.818;9.114;2024-02-16T16:39:41;2.28;;;1.48;;
11651;SDS011;5882;48.818;9.114;2024-02-16T16:42:29;1.40;;;1.30;;
11651;SDS011;5882;48.818;9.114;2024-02-16T16:45:15;1.15;;;1.05;;
11651;SDS011;5882;48.818;9.114;2024-02-16T16:48:01;1.17;;;1.13;;
11651;SDS011;5882;48.818;9.114;2024-02-16T16:50:47;1.48;;;1.33;;
11651;SDS011;5882;48.818;9.114;2024-02-16T16:53:32;1.60;;;1.30;;